createdAt,value
2022-10-18T00:02:29.763Z,10.70
2022-10-18T00:05:19.668Z,9.90
2022-10-18T00:08:08.020Z,11.03
2022-10-18T00:10:56.434Z,10.82
2022-10-18T00:13:44.864Z,10.73
2022-10-18T00:16:33.213Z,11.85
2022-10-18T00:19:24.726Z,12.32
2022-10-18T00:22:16.806Z,11.63
2022-10-18T00:25:06.099Z,12.20
2022-10-18T00:27:54.407Z,11.73
2022-10-18T00:30:42.806Z,13.25
2022-10-18T00:33:31.182Z,12.38
2022-10-18T00:36:20.240Z,13.02
2022-10-18T00:39:13.206Z,13.50
2022-10-18T00:42:01.480Z,12.77
2022-10-18T00:45:16.278Z,13.25
2022-10-18T00:48:06.126Z,13.68
2022-10-18T00:50:54.675Z,10.47
2022-10-18T00:53:43.055Z,14.05
2022-10-18T00:56:35.303Z,13.32
2022-10-18T00:59:24.490Z,13.98
2022-10-18T01:02:15.010Z,15.20
2022-10-18T01:05:03.389Z,16.67
2022-10-18T01:08:21.113Z,14.80
2022-10-18T01:11:26.511Z,14.82
2022-10-18T01:14:26.964Z,15.65
2022-10-18T01:17:19.129Z,15.23
2022-10-18T01:20:45.872Z,16.17
2022-10-18T01:23:59.809Z,15.98
2022-10-18T01:27:06.586Z,15.90
2022-10-18T01:30:23.482Z,16.73
2022-10-18T01:33:27.972Z,15.40
2022-10-18T01:36:22.198Z,14.30
2022-10-18T01:39:14.437Z,13.95
2022-10-18T01:42:07.116Z,13.80
2022-10-18T01:44:56.213Z,12.88
2022-10-18T01:47:47.657Z,12.88
2022-10-18T01:50:36.453Z,13.35
2022-10-18T01:53:31.404Z,13.27
2022-10-18T01:56:42.861Z,12.70
2022-10-18T01:59:48.193Z,13.27
2022-10-18T02:02:43.626Z,14.00
2022-10-18T02:05:40.305Z,13.80
2022-10-18T02:08:33.642Z,14.70
2022-10-18T02:11:22.410Z,13.75
2022-10-18T02:14:13.798Z,14.75
2022-10-18T02:17:04.583Z,14.55
2022-10-18T02:22:46.672Z,14.48
2022-10-18T02:25:36.786Z,14.60
2022-10-18T02:31:22.599Z,12.93
2022-10-18T02:34:20.793Z,14.43
2022-10-18T02:37:10.909Z,13.32
2022-10-18T02:40:00.687Z,13.40
2022-10-18T02:42:51.516Z,14.35
2022-10-18T02:48:27.973Z,12.68
2022-10-18T02:51:16.361Z,13.18
2022-10-18T02:54:05.296Z,13.82
2022-10-18T02:56:54.971Z,14.63
2022-10-18T02:59:43.290Z,14.63
2022-10-18T03:02:31.581Z,14.57
2022-10-18T03:05:19.897Z,14.60
2022-10-18T03:08:08.195Z,15.15
2022-10-18T03:10:56.561Z,15.10
2022-10-18T03:13:46.626Z,14.68
2022-10-18T03:16:35.037Z,14.23
2022-10-18T03:19:23.513Z,14.20
2022-10-18T03:22:11.812Z,14.30
2022-10-18T03:25:00.129Z,13.23
2022-10-18T03:27:48.425Z,13.48
2022-10-18T03:30:38.857Z,13.35
2022-10-18T03:33:27.179Z,13.27
2022-10-18T03:36:15.517Z,13.60
2022-10-18T03:39:03.835Z,12.98
2022-10-18T03:41:52.159Z,13.32
2022-10-18T03:44:40.478Z,13.40
2022-10-18T03:47:30.186Z,9.82
2022-10-18T03:50:18.712Z,9.73
2022-10-18T03:53:07.160Z,9.65
2022-10-18T03:55:56.724Z,8.90
2022-10-18T03:58:45.034Z,8.82
2022-10-18T04:01:33.448Z,8.50
2022-10-18T04:04:23.265Z,8.35
2022-10-18T04:07:11.589Z,8.27
2022-10-18T04:09:59.898Z,8.15
2022-10-18T04:12:48.506Z,7.30
2022-10-18T04:15:37.130Z,7.32
2022-10-18T04:18:25.463Z,7.72
2022-10-18T04:21:15.425Z,7.13
2022-10-18T04:24:04.124Z,8.27
2022-10-18T04:26:52.484Z,7.22
2022-10-18T04:29:40.787Z,7.95
2022-10-18T04:32:29.511Z,8.02
2022-10-18T04:35:17.969Z,8.07
2022-10-18T04:38:07.656Z,8.43
2022-10-18T04:40:56.109Z,8.85
2022-10-18T04:46:37.645Z,9.45
2022-10-18T04:49:25.955Z,9.55
2022-10-18T04:52:14.587Z,9.98
2022-10-18T04:55:04.349Z,9.25
2022-10-18T04:57:53.518Z,9.77
2022-10-18T05:00:42.436Z,9.85
2022-10-18T05:03:30.693Z,10.43
2022-10-18T05:06:19.282Z,10.68
2022-10-18T05:09:07.713Z,10.57
2022-10-18T05:11:57.369Z,11.13
2022-10-18T05:14:45.692Z,11.82
2022-10-18T05:17:34.027Z,11.40
2022-10-18T05:20:22.595Z,11.73
2022-10-18T05:23:11.045Z,12.75
2022-10-18T05:26:03.257Z,11.40
2022-10-18T05:28:53.057Z,12.05
2022-10-18T05:31:41.381Z,13.05
2022-10-18T05:34:31.989Z,12.70
2022-10-18T05:37:24.860Z,12.32
2022-10-18T05:40:16.649Z,13.20
2022-10-18T05:43:05.007Z,13.90
2022-10-18T05:45:54.668Z,13.07
2022-10-18T05:48:43.352Z,13.23
2022-10-18T05:51:31.713Z,13.32
2022-10-18T05:54:21.306Z,13.63
2022-10-18T05:57:09.654Z,14.65
2022-10-18T05:59:57.958Z,16.20
2022-10-18T06:02:47.963Z,16.02
2022-10-18T06:05:36.351Z,18.20
2022-10-18T06:08:24.787Z,17.92
2022-10-18T06:11:15.043Z,19.15
2022-10-18T06:14:03.421Z,19.73
2022-10-18T06:16:51.702Z,18.35
2022-10-18T06:19:43.420Z,20.05
2022-10-18T06:22:31.717Z,18.33
2022-10-18T06:25:20.057Z,19.25
2022-10-18T06:28:10.206Z,18.08
2022-10-18T06:31:00.412Z,18.90
2022-10-18T06:33:49.301Z,19.67
2022-10-18T06:36:39.226Z,19.58
2022-10-18T06:39:27.832Z,19.23
2022-10-18T06:42:18.041Z,18.77
2022-10-18T06:45:09.967Z,20.02
2022-10-18T06:47:58.605Z,19.48
2022-10-18T06:50:52.842Z,20.08
2022-10-18T06:53:53.420Z,19.60
2022-10-18T06:56:51.207Z,20.23
2022-10-18T06:59:39.532Z,21.23
2022-10-18T07:02:27.801Z,21.48
2022-10-18T07:05:16.294Z,21.17
2022-10-18T07:08:04.905Z,20.77
2022-10-18T07:10:54.892Z,21.55
2022-10-18T07:13:43.173Z,19.83
2022-10-18T07:16:32.446Z,21.00
2022-10-18T07:19:20.892Z,19.40
2022-10-18T07:22:09.232Z,19.83
2022-10-18T07:24:57.564Z,21.23
2022-10-18T07:27:47.283Z,20.58
2022-10-18T07:30:35.750Z,21.13
2022-10-18T07:33:25.979Z,20.50
2022-10-18T07:36:15.446Z,21.38
2022-10-18T07:39:04.133Z,22.17
2022-10-18T07:41:52.483Z,20.55
2022-10-18T07:44:42.146Z,21.95
2022-10-18T07:47:32.823Z,21.85
2022-10-18T07:50:23.552Z,21.92
2022-10-18T07:53:11.839Z,22.73
2022-10-18T07:56:02.428Z,21.50
2022-10-18T07:58:54.622Z,22.00
2022-10-18T08:01:44.371Z,22.67
2022-10-18T08:04:32.693Z,21.90
2022-10-18T08:07:21.011Z,22.30
2022-10-18T08:10:10.062Z,21.95
2022-10-18T08:12:58.321Z,21.27
2022-10-18T08:15:46.950Z,21.77
2022-10-18T08:18:37.399Z,21.13
2022-10-18T08:21:26.998Z,21.20
2022-10-18T08:24:15.326Z,19.58
2022-10-18T08:27:03.683Z,20.95
2022-10-18T08:29:52.078Z,20.15
2022-10-18T08:32:40.448Z,19.98
2022-10-18T08:35:30.277Z,19.70
2022-10-18T08:38:18.873Z,18.55
2022-10-18T08:41:44.855Z,19.45
2022-10-18T08:44:34.154Z,18.63
2022-10-18T08:47:26.874Z,18.17
2022-10-18T08:50:18.681Z,18.45
2022-10-18T08:53:20.229Z,18.75
2022-10-18T08:56:14.848Z,18.85
2022-10-18T08:59:04.851Z,20.58
2022-10-18T09:02:03.643Z,18.93
2022-10-18T09:05:01.502Z,18.52
2022-10-18T09:08:10.289Z,18.10
2022-10-18T09:11:11.158Z,17.50
2022-10-18T09:14:29.506Z,17.58
2022-10-18T09:17:27.704Z,16.15
2022-10-18T09:20:23.120Z,17.33
2022-10-18T09:23:20.098Z,18.58
2022-10-18T09:26:16.346Z,18.88
2022-10-18T09:29:14.896Z,17.73
2022-10-18T09:32:15.868Z,17.60
2022-10-18T09:38:00.507Z,17.13
2022-10-18T09:40:54.498Z,16.33
2022-10-18T09:43:50.536Z,14.98
2022-10-18T09:46:43.518Z,15.40
2022-10-18T09:49:37.246Z,14.93
2022-10-18T09:52:29.645Z,15.77
2022-10-18T09:55:24.650Z,14.90
2022-10-18T09:58:14.807Z,14.95
2022-10-18T10:01:04.563Z,13.70
2022-10-18T10:03:53.656Z,13.32
2022-10-18T10:06:51.024Z,14.13
2022-10-18T10:09:45.856Z,13.15
2022-10-18T10:12:37.639Z,13.68
2022-10-18T10:15:31.208Z,11.38
2022-10-18T10:18:27.264Z,11.63
2022-10-18T10:21:17.653Z,10.90
2022-10-18T10:24:06.435Z,11.52
2022-10-18T10:27:03.323Z,11.57
2022-10-18T10:29:59.523Z,11.85
2022-10-18T10:32:51.402Z,13.27
2022-10-18T10:35:53.012Z,14.03
2022-10-18T10:38:42.312Z,13.43
2022-10-18T10:44:26.251Z,14.73
2022-10-18T10:47:29.467Z,15.57
2022-10-18T10:50:25.576Z,15.20
2022-10-18T10:53:29.962Z,14.88
2022-10-18T10:56:29.694Z,15.02
2022-10-18T10:59:21.045Z,16.48
2022-10-18T11:02:21.772Z,16.70
2022-10-18T11:05:24.431Z,15.73
2022-10-18T11:08:14.708Z,16.90
2022-10-18T11:11:16.956Z,17.63
2022-10-18T11:14:27.123Z,15.93
2022-10-18T11:17:23.263Z,17.58
2022-10-18T11:20:19.785Z,16.83
2022-10-18T11:23:11.735Z,18.02
2022-10-18T11:26:43.742Z,17.25
2022-10-18T11:29:48.122Z,17.17
2022-10-18T11:32:45.830Z,17.50
2022-10-18T11:35:42.931Z,18.38
2022-10-18T11:38:39.145Z,17.67
2022-10-18T11:41:45.547Z,17.17
2022-10-18T11:44:40.781Z,17.65
2022-10-18T11:47:41.001Z,17.58
2022-10-18T11:50:38.353Z,18.60
2022-10-18T11:53:35.874Z,17.80
2022-10-18T11:56:36.821Z,16.52
2022-10-18T12:02:48.010Z,16.65
2022-10-18T12:05:39.248Z,17.48
2022-10-18T12:08:32.695Z,17.38
2022-10-18T12:11:25.783Z,16.88
2022-10-18T12:14:23.815Z,15.68
2022-10-18T12:17:41.695Z,16.70
2022-10-18T12:20:33.133Z,14.52
2022-10-18T12:23:27.355Z,13.68
2022-10-18T12:26:16.093Z,11.65
2022-10-18T12:29:15.079Z,13.85
2022-10-18T12:32:09.433Z,11.45
2022-10-18T12:35:02.045Z,10.45
2022-10-18T12:38:14.098Z,12.00
2022-10-18T12:41:03.210Z,12.88
2022-10-18T12:43:58.102Z,11.63
2022-10-18T12:46:48.095Z,11.13
2022-10-18T12:49:40.276Z,11.67
2022-10-18T12:52:34.576Z,12.40
2022-10-18T12:55:31.383Z,11.35
2022-10-18T12:58:33.386Z,12.55
2022-10-18T13:01:22.344Z,8.27
2022-10-18T13:04:34.861Z,8.10
2022-10-18T13:07:43.411Z,8.38
2022-10-18T13:10:36.656Z,7.15
2022-10-18T13:13:52.144Z,7.50
2022-10-18T13:16:45.322Z,7.60
2022-10-18T13:19:40.300Z,7.75
2022-10-18T13:22:58.847Z,8.48
2022-10-18T13:25:56.913Z,7.45
2022-10-18T13:28:54.021Z,7.32
2022-10-18T13:31:46.946Z,7.05
2022-10-18T13:34:39.038Z,7.07
2022-10-18T13:37:29.290Z,5.88
2022-10-18T13:40:26.522Z,6.40
2022-10-18T13:44:12.334Z,5.03
2022-10-18T13:47:34.643Z,5.38
2022-10-18T13:50:36.550Z,5.60
2022-10-18T13:53:46.261Z,5.70
2022-10-18T13:57:05.488Z,5.15
2022-10-18T14:00:12.770Z,4.60
2022-10-18T14:06:49.580Z,5.63
2022-10-18T14:09:48.874Z,6.05
2022-10-18T14:12:45.247Z,4.72
2022-10-18T14:15:37.855Z,6.38
2022-10-18T14:18:31.823Z,5.95
2022-10-18T14:21:30.232Z,6.55
2022-10-18T14:24:24.246Z,6.28
2022-10-18T14:27:19.728Z,6.07
2022-10-18T14:30:15.154Z,6.55
2022-10-18T14:33:03.699Z,5.60
2022-10-18T14:36:01.060Z,7.00
2022-10-18T14:38:52.912Z,6.00
2022-10-18T14:41:50.505Z,6.13
2022-10-18T14:44:40.693Z,6.30
2022-10-18T14:47:31.346Z,7.75
2022-10-18T14:50:27.017Z,7.53
2022-10-18T14:53:23.890Z,6.70
2022-10-18T14:56:28.298Z,6.50
2022-10-18T14:59:21.564Z,7.13
2022-10-18T15:02:15.573Z,6.53
2022-10-18T15:05:11.741Z,6.72
2022-10-18T15:08:00.885Z,6.75
2022-10-18T15:10:49.671Z,6.47
2022-10-18T15:13:43.370Z,6.70
2022-10-18T15:16:33.408Z,6.55
2022-10-18T15:19:53.964Z,6.88
2022-10-18T15:22:43.773Z,6.38
2022-10-18T15:25:34.471Z,6.17
2022-10-18T15:28:30.599Z,6.82
2022-10-18T15:31:24.974Z,6.82
2022-10-18T15:34:19.323Z,6.95
2022-10-18T15:37:19.284Z,7.40
2022-10-18T15:40:38.817Z,7.43
2022-10-18T15:43:40.610Z,7.00
2022-10-18T15:46:31.995Z,7.10
2022-10-18T15:50:00.135Z,7.05
2022-10-18T15:52:48.563Z,6.78
2022-10-18T15:55:48.836Z,6.88
2022-10-18T15:58:43.078Z,6.18
2022-10-18T16:01:36.421Z,6.07
2022-10-18T16:04:27.009Z,6.10
2022-10-18T16:07:15.970Z,5.75
2022-10-18T16:10:14.221Z,6.38
2022-10-18T16:13:04.034Z,6.70
2022-10-18T16:15:52.498Z,6.30
2022-10-18T16:18:40.833Z,5.47
2022-10-18T16:21:31.668Z,6.30
2022-10-18T16:27:11.079Z,6.25
2022-10-18T16:30:00.928Z,4.88
2022-10-18T16:32:49.408Z,5.28
2022-10-18T16:35:37.779Z,5.15
2022-10-18T16:38:32.712Z,4.95
2022-10-18T16:41:23.223Z,5.25
2022-10-18T16:44:11.525Z,5.07
2022-10-18T16:47:01.225Z,5.15
2022-10-18T16:49:50.338Z,6.70
2022-10-18T16:52:38.643Z,6.25
2022-10-18T16:55:27.051Z,5.00
2022-10-18T16:58:18.811Z,4.65
2022-10-18T17:01:09.012Z,3.78
2022-10-18T17:03:58.960Z,4.15
2022-10-18T17:06:49.004Z,3.83
2022-10-18T17:09:37.794Z,3.45
2022-10-18T17:12:26.162Z,4.55
2022-10-18T17:15:14.596Z,4.05
2022-10-18T17:18:03.985Z,4.18
2022-10-18T17:20:53.712Z,3.88
2022-10-18T17:23:42.077Z,4.10
2022-10-18T17:26:30.885Z,3.90
2022-10-18T17:29:19.237Z,3.42
2022-10-18T17:32:07.599Z,3.30
2022-10-18T17:34:55.907Z,3.80
2022-10-18T17:37:48.955Z,3.63
2022-10-18T17:40:40.878Z,3.38
2022-10-18T17:43:29.297Z,3.67
2022-10-18T17:46:18.215Z,4.18
2022-10-18T17:49:06.564Z,3.35
2022-10-18T17:51:54.909Z,3.50
2022-10-18T17:54:44.567Z,3.60
2022-10-18T17:57:33.216Z,3.33
2022-10-18T18:00:24.408Z,3.25
2022-10-18T18:06:01.999Z,3.03
2022-10-18T18:08:51.289Z,3.38
2022-10-18T18:11:43.465Z,3.53
2022-10-18T18:14:31.958Z,3.75
2022-10-18T18:17:28.666Z,3.80
2022-10-18T18:20:24.305Z,3.50
2022-10-18T18:23:12.623Z,3.60
2022-10-18T18:26:01.000Z,4.22
2022-10-18T18:28:51.015Z,3.53
2022-10-18T18:31:43.478Z,4.03
2022-10-18T18:34:32.210Z,3.67
2022-10-18T18:37:20.646Z,4.15
2022-10-18T18:40:09.868Z,4.47
2022-10-18T18:43:07.212Z,4.03
2022-10-18T18:46:08.137Z,3.97
2022-10-18T18:48:58.550Z,3.35
2022-10-18T18:51:47.594Z,4.30
2022-10-18T18:54:35.862Z,4.10
2022-10-18T18:57:24.275Z,4.18
2022-10-18T19:00:14.017Z,4.63
2022-10-18T19:03:04.290Z,4.38
2022-10-18T19:05:52.715Z,5.13
2022-10-18T19:08:41.422Z,5.43
2022-10-18T19:11:32.524Z,5.32
2022-10-18T19:17:10.831Z,5.82
2022-10-18T19:20:01.218Z,5.00
2022-10-18T19:22:49.522Z,5.00
2022-10-18T19:25:38.017Z,5.00
2022-10-18T19:28:26.333Z,4.60
2022-10-18T19:31:14.685Z,5.30
2022-10-18T19:34:04.399Z,4.18
2022-10-18T19:36:54.355Z,4.28
2022-10-18T19:39:42.874Z,4.93
2022-10-18T19:42:31.729Z,4.82
2022-10-18T19:45:20.278Z,4.50
2022-10-18T19:48:11.278Z,4.63
2022-10-18T19:51:07.074Z,4.28
2022-10-18T19:53:59.037Z,4.38
2022-10-18T19:56:47.935Z,4.40
2022-10-18T19:59:36.845Z,4.45
2022-10-18T20:02:25.334Z,3.72
2022-10-18T20:05:13.962Z,4.10
2022-10-18T20:08:02.739Z,3.80
2022-10-18T20:10:53.274Z,3.60
2022-10-18T20:13:41.697Z,3.60
2022-10-18T20:16:32.028Z,3.60
2022-10-18T20:19:20.361Z,3.83
2022-10-18T20:22:09.105Z,3.13
2022-10-18T20:24:58.147Z,4.13
2022-10-18T20:27:47.921Z,3.95
2022-10-18T20:30:36.324Z,3.70
2022-10-18T20:33:24.751Z,3.88
2022-10-18T20:36:15.292Z,3.67
2022-10-18T20:39:04.940Z,3.70
2022-10-18T20:41:53.285Z,3.88
2022-10-18T20:44:43.602Z,3.92
2022-10-18T20:47:32.266Z,3.35
2022-10-18T20:50:21.052Z,3.03
2022-10-18T20:53:09.973Z,3.15
2022-10-18T20:56:04.599Z,3.13
2022-10-18T20:58:56.309Z,2.92
2022-10-18T21:01:46.085Z,3.15
2022-10-18T21:04:35.851Z,3.20
2022-10-18T21:07:26.039Z,3.10
2022-10-18T21:10:14.300Z,2.97
2022-10-18T21:13:02.666Z,3.30
2022-10-18T21:15:55.545Z,3.53
2022-10-18T21:18:45.225Z,3.00
2022-10-18T21:21:33.676Z,4.43
2022-10-18T21:24:24.034Z,2.65
2022-10-18T21:27:12.307Z,3.53
2022-10-18T21:30:00.709Z,3.47
2022-10-18T21:32:49.742Z,4.20
2022-10-18T21:35:40.418Z,3.60
2022-10-18T21:38:28.767Z,4.47
2022-10-18T21:41:18.810Z,3.95
2022-10-18T21:44:10.723Z,3.20
2022-10-18T21:46:59.298Z,4.25
2022-10-18T21:49:47.634Z,3.45
2022-10-18T21:52:38.140Z,3.17
2022-10-18T21:55:26.518Z,3.65
2022-10-18T21:58:14.882Z,3.28
2022-10-18T22:01:07.219Z,3.40
2022-10-18T22:03:57.280Z,3.88
2022-10-18T22:06:45.569Z,3.45
2022-10-18T22:09:35.288Z,3.78
2022-10-18T22:12:23.600Z,3.53
2022-10-18T22:15:12.198Z,3.50
2022-10-18T22:18:00.485Z,3.30
2022-10-18T22:20:55.355Z,3.42
2022-10-18T22:23:45.080Z,3.60
2022-10-18T22:26:36.386Z,3.78
2022-10-18T22:29:24.716Z,3.47
2022-10-18T22:32:13.032Z,2.55
2022-10-18T22:35:01.752Z,3.40
2022-10-18T22:37:50.073Z,3.05
2022-10-18T22:40:38.421Z,2.70
2022-10-18T22:43:30.449Z,3.53
2022-10-18T22:46:18.897Z,2.67
2022-10-18T22:49:07.333Z,2.67
2022-10-18T22:51:55.649Z,3.15
2022-10-18T22:54:43.958Z,3.05
2022-10-18T22:57:32.278Z,2.90
2022-10-18T23:00:22.058Z,2.90
2022-10-18T23:03:10.498Z,3.10
2022-10-18T23:05:58.941Z,2.67
2022-10-18T23:08:47.312Z,2.83
2022-10-18T23:11:36.804Z,3.17
2022-10-18T23:14:25.097Z,3.60
2022-10-18T23:17:14.810Z,3.67
2022-10-18T23:20:03.105Z,3.33
2022-10-18T23:22:51.444Z,3.40
2022-10-18T23:25:40.211Z,3.28
2022-10-18T23:28:28.641Z,2.85
2022-10-18T23:31:19.352Z,3.13
2022-10-18T23:34:09.043Z,3.72
2022-10-18T23:36:57.336Z,3.13
2022-10-18T23:39:45.644Z,3.20
2022-10-18T23:42:33.931Z,3.78
2022-10-18T23:45:22.259Z,2.88
2022-10-18T23:48:10.600Z,3.35
2022-10-18T23:51:00.240Z,2.95
2022-10-18T23:53:48.625Z,2.97
2022-10-18T23:56:36.936Z,3.78
2022-10-18T23:59:25.382Z,3.80
